Wetterdaten: Freitag, 18.05.2012
Datum Zeit Temperatur Luftfeuchte Regen Wind Richtung Richtung Taupunkt Windchill Windben
18.05.2012 00:00 2,1 C 80 % 0,0 l/m 0,0 km/h (0 Bft) N-NO 22 -1,0 C 0,8 C 0,0 km/h (0 Bft)
18.05.2012 00:05 2,1 C 81 % 0,0 l/m 0,2 km/h (0 Bft) NO 45 -0,8 C 0,8 C 1,8 km/h (1 Bft)
18.05.2012 00:10 1,7 C 82 % 0,0 l/m 0,2 km/h (0 Bft) NO 45 -1,0 C 0,8 C 0,0 km/h (0 Bft)
18.05.2012 00:15 1,6 C 82 % 0,0 l/m 0,2 km/h (0 Bft) NO 45 -1,1 C 0,5 C 1,8 km/h (1 Bft)
18.05.2012 00:20 1,6 C 82 % 0,0 l/m 0,0 km/h (0 Bft) NO 45 -1,1 C 0,4 C 0,0 km/h (0 Bft)
18.05.2012 00:25 1,4 C 82 % 0,0 l/m 0,0 km/h (0 Bft) NO 45 -1,3 C 0,2 C 0,0 km/h (0 Bft)
18.05.2012 00:30 1,4 C 83 % 0,0 l/m 0,2 km/h (0 Bft) NO 45 -1,2 C 0,1 C 0,0 km/h (0 Bft)
18.05.2012 00:35 1,3 C 83 % 0,0 l/m 0,2 km/h (0 Bft) NO 45 -1,3 C 0,1 C 0,0 km/h (0 Bft)
18.05.2012 00:40 0,3 C 83 % 0,0 l/m 0,2 km/h (0 Bft) N-NW 337 -2,2 C -0,4 C 0,0 km/h (0 Bft)
18.05.2012 00:45 0,3 C 84 % 0,0 l/m 0,0 km/h (0 Bft) N 360 -2,1 C -0,7 C 0,0 km/h (0 Bft)
18.05.2012 00:50 0,4 C 85 % 0,0 l/m 0,2 km/h (0 Bft) N 360 -1,8 C -0,6 C 0,0 km/h (0 Bft)
18.05.2012 00:55 0,1 C 84 % 0,0 l/m 0,2 km/h (0 Bft) NO 45 -2,3 C -0,8 C 0,0 km/h (0 Bft)
18.05.2012 01:00 0,1 C 85 % 0,0 l/m 0,0 km/h (0 Bft) N-NO 22 -2,1 C -1,0 C 0,0 km/h (0 Bft)
18.05.2012 01:05 0,0 C 85 % 0,0 l/m 0,0 km/h (0 Bft) O 90 -2,2 C -1,0 C 0,0 km/h (0 Bft)
18.05.2012 01:10 -0,1 C 85 % 0,0 l/m 0,0 km/h (0 Bft) N 360 -2,3 C -1,3 C 0,0 km/h (0 Bft)
18.05.2012 01:15 0,4 C 86 % 0,0 l/m 0,0 km/h (0 Bft) N-NO 22 -1,7 C -1,3 C 1,9 km/h (1 Bft)
18.05.2012 01:20 0,7 C 87 % 0,0 l/m 0,0 km/h (0 Bft) O 90 -1,2 C -1,0 C 0,0 km/h (0 Bft)
18.05.2012 01:25 0,4 C 87 % 0,0 l/m 0,0 km/h (0 Bft) NO 45 -1,5 C -1,0 C 0,0 km/h (0 Bft)
18.05.2012 01:30 0,4 C 87 % 0,0 l/m 0,0 km/h (0 Bft) N-NO 22 -1,5 C -1,1 C 0,0 km/h (0 Bft)
18.05.2012 01:35 -0,2 C 86 % 0,0 l/m 0,0 km/h (0 Bft) O-SO 112 -2,3 C -1,3 C 0,0 km/h (0 Bft)
18.05.2012 01:40 -0,4 C 86 % 0,0 l/m 0,0 km/h (0 Bft) NO 45 -2,4 C -1,7 C 0,0 km/h (0 Bft)
18.05.2012 01:45 -0,4 C 87 % 0,0 l/m 0,0 km/h (0 Bft) N-NW 337 -2,3 C -1,7 C 0,0 km/h (0 Bft)
18.05.2012 01:50 -0,7 C 87 % 0,0 l/m 0,2 km/h (0 Bft) N-NW 337 -2,6 C -1,7 C 2,1 km/h (1 Bft)
18.05.2012 01:55 -0,5 C 87 % 0,0 l/m 0,2 km/h (0 Bft) NO 45 -2,4 C -1,7 C 0,0 km/h (0 Bft)
18.05.2012 02:00 -0,4 C 88 % 0,0 l/m 0,2 km/h (0 Bft) SO 135 -2,1 C -1,6 C 0,0 km/h (0 Bft)
18.05.2012 02:05 -0,4 C 88 % 0,0 l/m 0,0 km/h (0 Bft) N-NW 337 -2,1 C -1,7 C 0,0 km/h (0 Bft)
18.05.2012 02:10 -0,1 C 88 % 0,0 l/m 0,0 km/h (0 Bft) NO 45 -1,8 C -1,7 C 0,0 km/h (0 Bft)
18.05.2012 02:15 -0,3 C 89 % 0,0 l/m 0,0 km/h (0 Bft) W 270 -1,9 C -1,5 C 0,0 km/h (0 Bft)
18.05.2012 02:20 -0,7 C 88 % 0,0 l/m 0,0 km/h (0 Bft) W 270 -2,4 C -1,8 C 0,0 km/h (0 Bft)
18.05.2012 02:25 -0,9 C 88 % 0,0 l/m 0,2 km/h (0 Bft) NO 45 -2,6 C -1,9 C 2,1 km/h (1 Bft)
18.05.2012 02:30 -1,0 C 88 % 0,0 l/m 0,2 km/h (0 Bft) N 360 -2,7 C -2,1 C 0,0 km/h (0 Bft)
18.05.2012 02:35 -1,2 C 88 % 0,0 l/m 0,2 km/h (0 Bft) O-NO 67 -2,9 C -2,3 C 0,0 km/h (0 Bft)
18.05.2012 02:40 -0,8 C 89 % 0,0 l/m 0,0 km/h (0 Bft) NO 45 -2,4 C -2,4 C 0,0 km/h (0 Bft)
18.05.2012 02:45 -0,9 C 89 % 0,0 l/m 0,0 km/h (0 Bft) N-NO 22 -2,5 C -2,4 C 0,0 km/h (0 Bft)
18.05.2012 02:50 -1,6 C 88 % 0,0 l/m 0,0 km/h (0 Bft) N-NO 22 -3,3 C -2,4 C 0,0 km/h (0 Bft)
18.05.2012 02:55 -1,6 C 88 % 0,0 l/m 0,0 km/h (0 Bft) N-NW 337 -3,3 C -2,6 C 0,0 km/h (0 Bft)
18.05.2012 03:00 -1,8 C 88 % 0,0 l/m 0,0 km/h (0 Bft) N-NW 337 -3,5 C -2,8 C 0,0 km/h (0 Bft)
18.05.2012 03:05 -1,7 C 88 % 0,0 l/m 0,0 km/h (0 Bft) N-NO 22 -3,4 C -2,9 C 0,0 km/h (0 Bft)
18.05.2012 03:10 -1,6 C 88 % 0,0 l/m 0,0 km/h (0 Bft) N 360 -3,3 C -2,8 C 0,0 km/h (0 Bft)
18.05.2012 03:15 -1,0 C 89 % 0,0 l/m 0,0 km/h (0 Bft) N-NO 22 -2,6 C -2,7 C 0,0 km/h (0 Bft)
18.05.2012 03:20 -1,4 C 89 % 0,0 l/m 0,0 km/h (0 Bft) SO 135 -3,0 C -2,5 C 0,0 km/h (0 Bft)
18.05.2012 03:25 -1,7 C 89 % 0,0 l/m 0,0 km/h (0 Bft) S 180 -3,3 C -2,6 C 0,0 km/h (0 Bft)
18.05.2012 03:30 -1,5 C 89 % 0,0 l/m 0,0 km/h (0 Bft) SO 135 -3,1 C -2,7 C 0,0 km/h (0 Bft)
18.05.2012 03:35 -1,3 C 90 % 0,0 l/m 0,2 km/h (0 Bft) W 270 -2,7 C -2,6 C 0,0 km/h (0 Bft)
18.05.2012 03:40 -1,0 C 90 % 0,0 l/m 0,2 km/h (0 Bft) O 90 -2,4 C -2,6 C 0,0 km/h (0 Bft)
18.05.2012 03:45 -0,7 C 91 % 0,0 l/m 0,2 km/h (0 Bft) W-SW 247 -2,0 C -2,5 C 2,6 km/h (1 Bft)
18.05.2012 03:50 -1,7 C 90 % 0,0 l/m 0,2 km/h (0 Bft) O-SO 112 -3,1 C -2,6 C 0,0 km/h (0 Bft)
18.05.2012 03:55 -1,7 C 90 % 0,0 l/m 0,0 km/h (0 Bft) W-SW 247 -3,1 C -2,7 C 0,0 km/h (0 Bft)
18.05.2012 04:00 -1,8 C 90 % 0,0 l/m 0,0 km/h (0 Bft) N 360 -3,2 C -2,9 C 0,0 km/h (0 Bft)
18.05.2012 04:05 -1,8 C 90 % 0,0 l/m 0,0 km/h (0 Bft) S 180 -3,2 C -2,9 C 0,0 km/h (0 Bft)
18.05.2012 04:10 -1,9 C 90 % 0,0 l/m 0,0 km/h (0 Bft) W-NW 292 -3,3 C -2,9 C 0,0 km/h (0 Bft)
18.05.2012 04:15 -1,7 C 90 % 0,0 l/m 0,0 km/h (0 Bft) W 270 -3,1 C -2,8 C 1,6 km/h (1 Bft)
18.05.2012 04:20 -1,7 C 90 % 0,0 l/m 0,2 km/h (0 Bft) N-NO 22 -3,1 C -2,6 C 0,0 km/h (0 Bft)
18.05.2012 04:25 -1,6 C 90 % 0,0 l/m 0,2 km/h (0 Bft) W-NW 292 -3,0 C -2,5 C 3,1 km/h (1 Bft)
18.05.2012 04:30 -1,2 C 90 % 0,0 l/m 0,3 km/h (0 Bft) N 360 -2,6 C -2,4 C 0,0 km/h (0 Bft)
18.05.2012 04:35 -0,7 C 91 % 0,0 l/m 0,5 km/h (0 Bft) S 180 -2,0 C -2,1 C 0,0 km/h (0 Bft)
18.05.2012 04:40 -1,2 C 90 % 0,0 l/m 0,3 km/h (0 Bft) N-NW 337 -2,6 C -2,1 C 0,0 km/h (0 Bft)
18.05.2012 04:45 -1,3 C 90 % 0,0 l/m 0,0 km/h (0 Bft) W 270 -2,7 C -2,1 C 0,0 km/h (0 Bft)
18.05.2012 04:50 -1,2 C 90 % 0,0 l/m 0,2 km/h (0 Bft) N 360 -2,6 C -2,0 C 0,0 km/h (0 Bft)
18.05.2012 04:55 -1,1 C 91 % 0,0 l/m 0,2 km/h (0 Bft) N 360 -2,4 C -1,9 C 0,0 km/h (0 Bft)
18.05.2012 05:00 -0,9 C 91 % 0,0 l/m 0,0 km/h (0 Bft) N-NW 337 -2,2 C -1,7 C 0,0 km/h (0 Bft)
18.05.2012 05:05 -0,8 C 91 % 0,0 l/m 0,0 km/h (0 Bft) W 270 -2,1 C -1,6 C 0,0 km/h (0 Bft)
18.05.2012 05:10 -0,8 C 91 % 0,0 l/m 0,0 km/h (0 Bft) W-NW 292 -2,1 C -1,5 C 0,0 km/h (0 Bft)
18.05.2012 05:15 -0,8 C 91 % 0,0 l/m 0,0 km/h (0 Bft) N 360 -2,1 C -1,5 C 0,0 km/h (0 Bft)
18.05.2012 05:20 -0,8 C 91 % 0,0 l/m 0,0 km/h (0 Bft) N-NW 337 -2,1 C -1,5 C 0,0 km/h (0 Bft)
18.05.2012 05:25 -0,7 C 91 % 0,0 l/m 0,3 km/h (0 Bft) W-NW 292 -2,0 C -1,5 C 2,6 km/h (1 Bft)
18.05.2012 05:30 -0,8 C 91 % 0,0 l/m 0,5 km/h (0 Bft) N 360 -2,1 C -1,4 C 0,0 km/h (0 Bft)
18.05.2012 05:35 -0,5 C 91 % 0,0 l/m 0,5 km/h (0 Bft) N-NO 22 -1,8 C -1,4 C 0,0 km/h (0 Bft)
18.05.2012 05:40 -0,5 C 91 % 0,0 l/m 0,2 km/h (0 Bft) W 270 -1,8 C -1,4 C 0,0 km/h (0 Bft)
18.05.2012 05:45 -0,6 C 91 % 0,0 l/m 0,0 km/h (0 Bft) W-NW 292 -1,9 C -1,3 C 0,0 km/h (0 Bft)
18.05.2012 05:50 -0,7 C 91 % 0,0 l/m 0,3 km/h (0 Bft) NO 45 -2,0 C -1,4 C 1,8 km/h (1 Bft)
18.05.2012 05:55 -0,4 C 91 % 0,0 l/m 0,6 km/h (0 Bft) N-NO 22 -1,7 C -1,3 C 3,5 km/h (1 Bft)
18.05.2012 06:00 -0,2 C 91 % 0,0 l/m 1,0 km/h (0 Bft) O-SO 112 -1,5 C -1,0 C 2,4 km/h (1 Bft)
18.05.2012 06:05 -0,2 C 91 % 0,0 l/m 0,6 km/h (0 Bft) SO 135 -1,5 C -0,7 C 0,0 km/h (0 Bft)
18.05.2012 06:10 0,0 C 91 % 0,0 l/m 0,2 km/h (0 Bft) N-NO 22 -1,3 C 0,0 C 0,0 km/h (0 Bft)
18.05.2012 06:15 0,7 C 92 % 0,0 l/m 0,3 km/h (0 Bft) NW 315 -0,4 C 0,1 C 0,0 km/h (0 Bft)
18.05.2012 06:20 1,0 C 91 % 0,0 l/m 0,6 km/h (0 Bft) SO 135 -0,3 C 0,3 C 2,6 km/h (1 Bft)
18.05.2012 06:25 1,1 C 91 % 0,0 l/m 0,3 km/h (0 Bft) O-SO 112 -0,2 C 0,6 C 0,0 km/h (0 Bft)
18.05.2012 06:30 1,5 C 90 % 0,0 l/m 0,5 km/h (0 Bft) S 180 0,0 C 1,8 C 0,0 km/h (0 Bft)
18.05.2012 06:35 1,5 C 89 % 0,0 l/m 0,5 km/h (0 Bft) N-NO 22 -0,1 C 2,8 C 0,0 km/h (0 Bft)
18.05.2012 06:40 4,1 C 86 % 0,0 l/m 0,3 km/h (0 Bft) W-SW 247 2,0 C 4,8 C 0,0 km/h (0 Bft)
18.05.2012 06:45 4,1 C 81 % 0,0 l/m 0,2 km/h (0 Bft) N 360 1,1 C 5,0 C 2,1 km/h (1 Bft)
18.05.2012 06:50 5,6 C 79 % 0,0 l/m 0,2 km/h (0 Bft) W-NW 292 2,3 C 6,0 C 2,1 km/h (1 Bft)
18.05.2012 06:55 5,7 C 78 % 0,0 l/m 0,2 km/h (0 Bft) NO 45 2,2 C 6,4 C 0,0 km/h (0 Bft)
18.05.2012 07:00 6,0 C 77 % 0,0 l/m 0,2 km/h (0 Bft) SO 135 2,3 C 6,9 C 0,0 km/h (0 Bft)
18.05.2012 07:05 6,5 C 77 % 0,0 l/m 0,0 km/h (0 Bft) O-SO 112 2,8 C 7,0 C 0,0 km/h (0 Bft)
18.05.2012 07:10 7,2 C 73 % 0,0 l/m 0,0 km/h (0 Bft) N 360 2,5 C 8,0 C 0,0 km/h (0 Bft)
18.05.2012 07:15 7,9 C 73 % 0,0 l/m 0,0 km/h (0 Bft) N 360 2,4 C 8,8 C 0,0 km/h (0 Bft)
18.05.2012 07:20 9,3 C 73 % 0,0 l/m 0,0 km/h (0 Bft) S-SO 157 2,2 C 10,7 C 0,0 km/h (0 Bft)
18.05.2012 07:25 10,7 C 73 % 0,0 l/m 0,0 km/h (0 Bft) S 180 3,9 C 11,8 C 0,0 km/h (0 Bft)
18.05.2012 07:30 11,3 C 73 % 0,0 l/m 0,2 km/h (0 Bft) N-NW 337 2,8 C 13,7 C 2,7 km/h (1 Bft)
18.05.2012 07:35 10,2 C 73 % 0,0 l/m 0,2 km/h (0 Bft) W-NW 292 2,6 C 13,8 C 0,0 km/h (0 Bft)
18.05.2012 07:40 11,8 C 73 % 0,0 l/m 0,3 km/h (0 Bft) W-SW 247 3,6 C 14,3 C 0,0 km/h (0 Bft)
18.05.2012 07:45 11,6 C 73 % 0,0 l/m 0,0 km/h (0 Bft) W-NW 292 3,6 C 14,8 C 5,0 km/h (1 Bft)
18.05.2012 07:50 9,9 C 73 % 0,0 l/m 1,3 km/h (1 Bft) W-SW 247 2,7 C 13,2 C 5,6 km/h (1 Bft)
18.05.2012 07:55 9,9 C 73 % 0,0 l/m 1,9 km/h (1 Bft) NW 315 3,2 C 12,0 C 0,0 km/h (0 Bft)
18.05.2012 08:00 9,9 C 73 % 0,0 l/m 2,7 km/h (1 Bft) W-SW 247 3,2 C 11,0 C 3,9 km/h (1 Bft)
18.05.2012 08:05 9,9 C 73 % 0,0 l/m 1,9 km/h (1 Bft) S-SW 202 3,2 C 10,6 C 0,0 km/h (0 Bft)
18.05.2012 08:10 9,4 C 73 % 0,0 l/m 1,6 km/h (1 Bft) W 270 2,9 C 10,1 C 3,2 km/h (1 Bft)
18.05.2012 08:15 9,3 C 73 % 0,0 l/m 1,9 km/h (1 Bft) N-NW 337 2,8 C 9,9 C 2,9 km/h (1 Bft)
18.05.2012 08:20 9,5 C 73 % 0,0 l/m 1,9 km/h (1 Bft) SW 225 3,3 C 9,8 C 2,4 km/h (1 Bft)
18.05.2012 08:25 9,7 C 73 % 0,0 l/m 1,4 km/h (1 Bft) NW 315 3,4 C 10,0 C 2,3 km/h (1 Bft)
18.05.2012 08:30 10,0 C 73 % 0,0 l/m 1,6 km/h (1 Bft) S 180 2,8 C 10,3 C 4,5 km/h (1 Bft)
18.05.2012 08:35 10,3 C 73 % 0,0 l/m 2,7 km/h (1 Bft) W-SW 247 2,9 C 10,4 C 6,4 km/h (2 Bft)
18.05.2012 08:40 10,0 C 73 % 0,0 l/m 3,5 km/h (1 Bft) W-NW 292 1,9 C 10,6 C 3,2 km/h (1 Bft)
18.05.2012 08:45 10,3 C 73 % 0,0 l/m 2,9 km/h (1 Bft) N-NW 337 2,4 C 10,7 C 0,0 km/h (0 Bft)
18.05.2012 08:50 10,3 C 73 % 0,0 l/m 1,6 km/h (1 Bft) S-SW 202 2,6 C 11,0 C 2,3 km/h (1 Bft)
18.05.2012 08:55 10,2 C 73 % 0,0 l/m 1,9 km/h (1 Bft) SW 225 2,6 C 11,0 C 3,4 km/h (1 Bft)
18.05.2012 09:00 10,1 C 73 % 0,0 l/m 1,9 km/h (1 Bft) NW 315 2,5 C 10,9 C 1,8 km/h (1 Bft)
18.05.2012 09:05 10,2 C 73 % 0,0 l/m 1,0 km/h (0 Bft) W 270 2,6 C 11,0 C 0,0 km/h (0 Bft)
18.05.2012 09:10 11,1 C 73 % 0,0 l/m 0,2 km/h (0 Bft) W-SW 247 3,6 C 11,6 C 0,0 km/h (0 Bft)
18.05.2012 09:15 11,4 C 73 % 0,0 l/m 0,6 km/h (0 Bft) S-SW 202 3,7 C 11,9 C 2,1 km/h (1 Bft)
18.05.2012 09:20 11,7 C 73 % 0,0 l/m 2,1 km/h (1 Bft) S 180 4,0 C 12,2 C 1,6 km/h (1 Bft)
18.05.2012 09:25 11,6 C 73 % 0,0 l/m 1,4 km/h (1 Bft) O-SO 112 3,9 C 12,4 C 0,0 km/h (0 Bft)
18.05.2012 09:30 11,3 C 73 % 0,0 l/m 0,2 km/h (0 Bft) SW 225 3,6 C 12,7 C 0,0 km/h (0 Bft)
18.05.2012 09:35 11,2 C 73 % 0,0 l/m 0,0 km/h (0 Bft) O-SO 112 3,7 C 12,7 C 0,0 km/h (0 Bft)
18.05.2012 09:40 11,8 C 73 % 0,0 l/m 0,0 km/h (0 Bft) SW 225 4,3 C 12,9 C 0,0 km/h (0 Bft)
18.05.2012 09:45 12,0 C 73 % 0,0 l/m 0,3 km/h (0 Bft) W-SW 247 4,2 C 13,0 C 2,9 km/h (1 Bft)
18.05.2012 09:50 12,6 C 73 % 0,0 l/m 1,4 km/h (1 Bft) W-SW 247 4,3 C 13,2 C 2,1 km/h (1 Bft)
18.05.2012 09:55 12,8 C 73 % 0,0 l/m 1,3 km/h (1 Bft) S 180 4,2 C 13,5 C 0,0 km/h (0 Bft)
18.05.2012 10:00 12,6 C 73 % 0,0 l/m 1,8 km/h (1 Bft) W-SW 247 3,8 C 13,6 C 2,7 km/h (1 Bft)
18.05.2012 10:05 12,9 C 73 % 0,0 l/m 2,3 km/h (1 Bft) W-NW 292 3,8 C 13,7 C 4,8 km/h (1 Bft)
18.05.2012 10:10 13,4 C 73 % 0,0 l/m 1,6 km/h (1 Bft) W 270 2,9 C 14,4 C 2,3 km/h (1 Bft)
18.05.2012 10:15 13,8 C 73 % 0,0 l/m 1,8 km/h (1 Bft) W-SW 247 3,1 C 14,8 C 3,7 km/h (1 Bft)
18.05.2012 10:20 14,1 C 73 % 0,0 l/m 2,1 km/h (1 Bft) W 270 2,8 C 15,4 C 4,0 km/h (1 Bft)
18.05.2012 10:25 14,3 C 73 % 0,0 l/m 2,6 km/h (1 Bft) W-SW 247 3,6 C 15,7 C 3,5 km/h (1 Bft)
18.05.2012 10:30 14,9 C 73 % 0,0 l/m 3,4 km/h (1 Bft) W-SW 247 3,4 C 16,4 C 4,8 km/h (1 Bft)
18.05.2012 10:35 15,3 C 73 % 0,0 l/m 3,9 km/h (1 Bft) W-SW 247 3,8 C 16,6 C 8,7 km/h (2 Bft)
18.05.2012 10:40 15,9 C 73 % 0,0 l/m 4,3 km/h (1 Bft) W-SW 247 4,7 C 17,1 C 5,0 km/h (1 Bft)
18.05.2012 10:45 15,6 C 73 % 0,0 l/m 4,5 km/h (1 Bft) W 270 4,0 C 17,2 C 7,2 km/h (2 Bft)
18.05.2012 10:50 15,3 C 73 % 0,0 l/m 4,3 km/h (1 Bft) W 270 3,8 C 16,8 C 6,0 km/h (2 Bft)
18.05.2012 10:55 15,9 C 73 % 0,0 l/m 4,2 km/h (1 Bft) SO 135 4,5 C 16,6 C 2,6 km/h (1 Bft)
18.05.2012 11:00 17,0 C 73 % 0,0 l/m 2,7 km/h (1 Bft) W 270 5,9 C 17,7 C 4,5 km/h (1 Bft)
18.05.2012 11:05 17,6 C 73 % 0,0 l/m 2,6 km/h (1 Bft) SW 225 5,1 C 18,5 C 5,0 km/h (1 Bft)
18.05.2012 11:10 17,1 C 73 % 0,0 l/m 3,7 km/h (1 Bft) W-SW 247 4,1 C 18,9 C 5,8 km/h (2 Bft)
18.05.2012 11:15 17,2 C 73 % 0,0 l/m 3,4 km/h (1 Bft) S-SW 202 5,2 C 18,8 C 3,5 km/h (1 Bft)
18.05.2012 11:20 17,4 C 73 % 0,0 l/m 3,7 km/h (1 Bft) W-NW 292 4,4 C 18,6 C 6,6 km/h (2 Bft)
18.05.2012 11:25 16,9 C 73 % 0,0 l/m 4,0 km/h (1 Bft) W 270 3,9 C 18,5 C 4,2 km/h (1 Bft)
18.05.2012 11:30 17,2 C 73 % 0,0 l/m 3,7 km/h (1 Bft) W-SW 247 4,2 C 18,5 C 3,5 km/h (1 Bft)
18.05.2012 11:35 17,0 C 73 % 0,0 l/m 3,9 km/h (1 Bft) W-NW 292 4,3 C 18,5 C 9,7 km/h (2 Bft)
18.05.2012 11:40 17,3 C 73 % 0,0 l/m 3,4 km/h (1 Bft) W-SW 247 5,3 C 18,6 C 1,6 km/h (1 Bft)
18.05.2012 11:45 17,7 C 73 % 0,0 l/m 3,4 km/h (1 Bft) W-NW 292 5,0 C 18,8 C 5,0 km/h (1 Bft)
18.05.2012 11:50 17,7 C 73 % 0,0 l/m 3,5 km/h (1 Bft) W-SW 247 4,3 C 18,9 C 4,7 km/h (1 Bft)
18.05.2012 11:55 17,7 C 73 % 0,0 l/m 3,7 km/h (1 Bft) S-SW 202 3,9 C 19,1 C 3,9 km/h (1 Bft)
18.05.2012 12:00 17,6 C 73 % 0,0 l/m 3,9 km/h (1 Bft) S-SW 202 3,5 C 19,1 C 3,9 km/h (1 Bft)
18.05.2012 12:05 17,8 C 73 % 0,0 l/m 3,2 km/h (1 Bft) W-SW 247 2,9 C 19,3 C 4,5 km/h (1 Bft)
18.05.2012 12:10 17,4 C 73 % 0,0 l/m 3,2 km/h (1 Bft) W-NW 292 1,8 C 19,2 C 5,3 km/h (1 Bft)
18.05.2012 12:15 17,3 C 73 % 0,0 l/m 3,9 km/h (1 Bft) W-SW 247 1,7 C 19,1 C 6,1 km/h (2 Bft)
18.05.2012 12:20 17,6 C 73 % 0,0 l/m 3,9 km/h (1 Bft) N 360 1,6 C 18,9 C 2,3 km/h (1 Bft)
18.05.2012 12:25 17,8 C 73 % 0,0 l/m 4,2 km/h (1 Bft) W-SW 247 2,5 C 19,1 C 4,2 km/h (1 Bft)
18.05.2012 12:30 17,8 C 73 % 0,0 l/m 3,1 km/h (1 Bft) W-SW 247 2,9 C 19,3 C 5,0 km/h (1 Bft)
18.05.2012 12:35 18,0 C 73 % 0,0 l/m 2,4 km/h (1 Bft) SO 135 3,5 C 19,5 C 2,3 km/h (1 Bft)
18.05.2012 12:40 18,5 C 73 % 0,0 l/m 1,9 km/h (1 Bft) S-SW 202 4,3 C 19,9 C 1,8 km/h (1 Bft)
18.05.2012 12:45 18,5 C 73 % 0,0 l/m 1,9 km/h (1 Bft) W-SW 247 3,9 C 20,3 C 2,3 km/h (1 Bft)
18.05.2012 12:50 19,2 C 73 % 0,0 l/m 1,0 km/h (0 Bft) N 360 4,9 C 21,1 C 2,1 km/h (1 Bft)
18.05.2012 12:55 19,1 C 73 % 0,0 l/m 1,6 km/h (1 Bft) W 270 4,1 C 21,5 C 3,4 km/h (1 Bft)
18.05.2012 13:00 19,5 C 73 % 0,0 l/m 1,6 km/h (1 Bft) N-NW 337 4,4 C 21,8 C 2,7 km/h (1 Bft)
18.05.2012 13:05 18,8 C 73 % 0,0 l/m 1,8 km/h (1 Bft) N-NW 337 3,4 C 21,7 C 5,1 km/h (1 Bft)
18.05.2012 13:10 18,1 C 73 % 0,0 l/m 2,7 km/h (1 Bft) N-NW 337 2,8 C 21,1 C 2,6 km/h (1 Bft)
18.05.2012 13:15 18,8 C 73 % 0,0 l/m 2,4 km/h (1 Bft) NW 315 4,2 C 20,9 C 2,1 km/h (1 Bft)
18.05.2012 13:21 18,6 C 73 % 0,0 l/m 2,1 km/h (1 Bft) W-SW 247 3,6 C 21,0 C 2,4 km/h (1 Bft)
18.05.2012 13:25 18,6 C 73 % 0,0 l/m 2,1 km/h (1 Bft) W-SW 247 3,6 C 21,0 C 2,4 km/h (1 Bft)
18.05.2012 13:30 18,6 C 73 % 0,0 l/m 1,8 km/h (1 Bft) N-NW 337 3,6 C 21,1 C 1,6 km/h (1 Bft)
18.05.2012 13:35 19,2 C 73 % 0,0 l/m 1,3 km/h (1 Bft) W-SW 247 4,2 C 21,4 C 3,2 km/h (1 Bft)
18.05.2012 13:40 19,0 C 73 % 0,0 l/m 1,6 km/h (1 Bft) W-SW 247 3,6 C 21,6 C 0,0 km/h (0 Bft)
18.05.2012 13:45 18,8 C 73 % 0,0 l/m 1,9 km/h (1 Bft) N 360 4,2 C 21,3 C 0,0 km/h (0 Bft)
18.05.2012 13:50 18,4 C 73 % 0,0 l/m 1,9 km/h (1 Bft) W-SW 247 3,5 C 21,2 C 1,6 km/h (1 Bft)
18.05.2012 13:55 18,5 C 73 % 0,0 l/m 1,6 km/h (1 Bft) N 360 3,9 C 21,1 C 1,9 km/h (1 Bft)
18.05.2012 14:00 18,8 C 73 % 0,0 l/m 1,9 km/h (1 Bft) N 360 4,2 C 21,2 C 5,0 km/h (1 Bft)
18.05.2012 14:05 18,7 C 73 % 0,0 l/m 2,9 km/h (1 Bft) N-NW 337 4,5 C 21,1 C 4,8 km/h (1 Bft)
18.05.2012 14:10 18,7 C 73 % 0,0 l/m 3,5 km/h (1 Bft) N-NO 22 4,5 C 20,8 C 3,2 km/h (1 Bft)
18.05.2012 14:15 19,0 C 73 % 0,0 l/m 3,2 km/h (1 Bft) O 90 4,4 C 21,0 C 2,3 km/h (1 Bft)
18.05.2012 14:20 19,2 C 73 % 0,0 l/m 2,9 km/h (1 Bft) N-NW 337 4,9 C 21,3 C 4,8 km/h (1 Bft)
18.05.2012 14:25 19,0 C 73 % 0,0 l/m 4,0 km/h (1 Bft) W-NW 292 4,4 C 21,2 C 9,8 km/h (2 Bft)
18.05.2012 14:30 19,0 C 73 % 0,0 l/m 4,8 km/h (1 Bft) W-SW 247 4,4 C 20,8 C 5,3 km/h (1 Bft)
18.05.2012 14:35 19,3 C 73 % 0,0 l/m 3,7 km/h (1 Bft) O 90 4,2 C 21,1 C 2,1 km/h (1 Bft)
18.05.2012 14:40 20,4 C 73 % 0,0 l/m 3,1 km/h (1 Bft) SW 225 4,4 C 22,1 C 3,2 km/h (1 Bft)
18.05.2012 14:45 20,1 C 73 % 0,0 l/m 3,4 km/h (1 Bft) W-SW 247 4,6 C 22,4 C 10,9 km/h (2 Bft)
18.05.2012 14:50 18,9 C 73 % 0,0 l/m 4,0 km/h (1 Bft) W 270 3,9 C 21,8 C 5,0 km/h (1 Bft)
18.05.2012 14:55 19,1 C 73 % 0,0 l/m 4,5 km/h (1 Bft) W-NW 292 4,1 C 21,3 C 4,8 km/h (1 Bft)
18.05.2012 15:00 19,0 C 73 % 0,0 l/m 4,2 km/h (1 Bft) W-SW 247 4,0 C 20,8 C 3,2 km/h (1 Bft)
18.05.2012 15:05 18,8 C 73 % 0,0 l/m 2,9 km/h (1 Bft) W-SW 247 4,2 C 20,8 C 2,1 km/h (1 Bft)
18.05.2012 15:10 18,9 C 73 % 0,0 l/m 2,9 km/h (1 Bft) W-SW 247 4,6 C 20,7 C 9,0 km/h (2 Bft)
18.05.2012 15:15 18,6 C 73 % 0,0 l/m 3,2 km/h (1 Bft) W-SW 247 4,0 C 20,4 C 2,4 km/h (1 Bft)
18.05.2012 15:20 18,7 C 73 % 0,0 l/m 2,4 km/h (1 Bft) W 270 4,1 C 20,5 C 0,0 km/h (0 Bft)
18.05.2012 15:25 18,6 C 73 % 0,0 l/m 0,8 km/h (0 Bft) NW 315 4,7 C 20,7 C 3,4 km/h (1 Bft)
18.05.2012 15:30 18,1 C 73 % 0,0 l/m 1,8 km/h (1 Bft) W 270 4,6 C 20,3 C 4,0 km/h (1 Bft)
18.05.2012 15:35 17,6 C 73 % 0,0 l/m 2,9 km/h (1 Bft) W 270 4,9 C 19,5 C 3,2 km/h (1 Bft)
18.05.2012 15:40 17,0 C 73 % 0,0 l/m 3,5 km/h (1 Bft) W-NW 292 5,0 C 18,6 C 3,1 km/h (1 Bft)
18.05.2012 15:45 17,1 C 73 % 0,0 l/m 3,1 km/h (1 Bft) W-NW 292 5,7 C 18,4 C 2,6 km/h (1 Bft)
18.05.2012 15:50 17,1 C 73 % 0,0 l/m 2,4 km/h (1 Bft) N-NW 337 6,3 C 18,3 C 4,0 km/h (1 Bft)
18.05.2012 15:55 17,0 C 73 % 0,0 l/m 2,6 km/h (1 Bft) W-SW 247 6,2 C 18,1 C 1,6 km/h (1 Bft)
18.05.2012 16:00 16,8 C 73 % 0,0 l/m 2,7 km/h (1 Bft) W 270 7,4 C 18,0 C 4,3 km/h (1 Bft)
18.05.2012 16:05 16,8 C 73 % 0,0 l/m 2,3 km/h (1 Bft) W 270 5,7 C 17,9 C 3,2 km/h (1 Bft)
18.05.2012 16:10 17,1 C 73 % 0,0 l/m 2,6 km/h (1 Bft) W-NW 292 5,4 C 18,1 C 6,4 km/h (2 Bft)
18.05.2012 16:15 17,2 C 73 % 0,0 l/m 3,4 km/h (1 Bft) W 270 5,2 C 18,0 C 2,9 km/h (1 Bft)
18.05.2012 16:20 17,1 C 73 % 0,0 l/m 4,2 km/h (1 Bft) W-NW 292 5,1 C 18,1 C 5,8 km/h (2 Bft)
18.05.2012 16:25 17,3 C 73 % 0,0 l/m 2,7 km/h (1 Bft) W 270 5,6 C 18,3 C 5,1 km/h (1 Bft)
18.05.2012 16:30 18,4 C 73 % 0,0 l/m 2,4 km/h (1 Bft) W 270 6,6 C 19,1 C 5,5 km/h (1 Bft)
18.05.2012 16:35 18,6 C 73 % 0,0 l/m 3,5 km/h (1 Bft) W-SW 247 5,8 C 19,8 C 4,2 km/h (1 Bft)
18.05.2012 16:40 18,9 C 73 % 0,0 l/m 4,3 km/h (1 Bft) SW 225 6,0 C 20,8 C 5,6 km/h (1 Bft)
18.05.2012 16:45 18,7 C 73 % 0,0 l/m 4,5 km/h (1 Bft) S 180 5,2 C 21,3 C 2,1 km/h (1 Bft)
18.05.2012 16:50 17,9 C 73 % 0,0 l/m 4,3 km/h (1 Bft) W-NW 292 4,8 C 20,5 C 3,4 km/h (1 Bft)
18.05.2012 16:55 17,6 C 73 % 0,0 l/m 3,5 km/h (1 Bft) W-NW 292 4,5 C 19,8 C 3,9 km/h (1 Bft)
18.05.2012 17:00 18,0 C 73 % 0,0 l/m 2,4 km/h (1 Bft) W-NW 292 5,2 C 19,5 C 1,8 km/h (1 Bft)
18.05.2012 17:05 18,6 C 73 % 0,0 l/m 2,6 km/h (1 Bft) W 270 6,4 C 20,4 C 5,1 km/h (1 Bft)
18.05.2012 17:10 18,4 C 73 % 0,0 l/m 2,6 km/h (1 Bft) W-SW 247 5,9 C 20,9 C 2,7 km/h (1 Bft)
18.05.2012 17:15 18,3 C 73 % 0,0 l/m 2,9 km/h (1 Bft) W-NW 292 5,5 C 20,9 C 6,0 km/h (2 Bft)
18.05.2012 17:20 18,4 C 73 % 0,0 l/m 2,3 km/h (1 Bft) O-SO 112 5,3 C 20,6 C 0,0 km/h (0 Bft)
18.05.2012 17:25 18,3 C 73 % 0,0 l/m 1,8 km/h (1 Bft) W-SW 247 5,8 C 21,1 C 4,3 km/h (1 Bft)
18.05.2012 17:30 18,1 C 73 % 0,0 l/m 2,3 km/h (1 Bft) W-NW 292 5,7 C 21,0 C 5,8 km/h (2 Bft)
18.05.2012 17:35 17,9 C 73 % 0,0 l/m 2,9 km/h (1 Bft) N-NW 337 6,1 C 20,5 C 2,9 km/h (1 Bft)
18.05.2012 17:40 17,8 C 73 % 0,0 l/m 2,3 km/h (1 Bft) W 270 6,0 C 19,8 C 1,9 km/h (1 Bft)
18.05.2012 17:45 17,6 C 73 % 0,0 l/m 1,9 km/h (1 Bft) W-NW 292 6,2 C 19,4 C 1,6 km/h (1 Bft)
18.05.2012 17:50 17,4 C 73 % 0,0 l/m 2,4 km/h (1 Bft) W-SW 247 6,3 C 19,0 C 4,5 km/h (1 Bft)
18.05.2012 17:55 17,5 C 73 % 0,0 l/m 2,6 km/h (1 Bft) W-NW 292 6,4 C 18,9 C 3,4 km/h (1 Bft)
18.05.2012 18:00 17,8 C 73 % 0,0 l/m 2,6 km/h (1 Bft) N 360 6,6 C 19,0 C 0,0 km/h (0 Bft)
18.05.2012 18:05 17,6 C 73 % 0,0 l/m 2,7 km/h (1 Bft) W 270 6,2 C 19,1 C 5,8 km/h (2 Bft)
18.05.2012 18:10 17,6 C 73 % 0,0 l/m 3,2 km/h (1 Bft) W-NW 292 6,5 C 19,0 C 4,2 km/h (1 Bft)
18.05.2012 18:15 17,5 C 73 % 0,0 l/m 3,5 km/h (1 Bft) W-NW 292 6,4 C 18,9 C 2,7 km/h (1 Bft)
18.05.2012 18:20 17,8 C 73 % 0,0 l/m 3,5 km/h (1 Bft) W-NW 292 6,6 C 19,1 C 5,0 km/h (1 Bft)
18.05.2012 18:25 17,8 C 73 % 0,0 l/m 3,2 km/h (1 Bft) NW 315 6,6 C 19,8 C 4,0 km/h (1 Bft)
18.05.2012 18:30 17,7 C 73 % 0,0 l/m 3,7 km/h (1 Bft) S-SW 202 6,2 C 20,3 C 3,4 km/h (1 Bft)
18.05.2012 18:35 17,6 C 73 % 0,0 l/m 4,2 km/h (1 Bft) W-NW 292 6,2 C 20,1 C 4,7 km/h (1 Bft)
18.05.2012 18:40 17,3 C 73 % 0,0 l/m 3,5 km/h (1 Bft) N-NW 337 6,2 C 19,7 C 6,1 km/h (2 Bft)
18.05.2012 18:45 17,4 C 73 % 0,0 l/m 3,1 km/h (1 Bft) W-SW 247 6,6 C 19,7 C 4,0 km/h (1 Bft)
18.05.2012 18:50 17,4 C 73 % 0,0 l/m 3,2 km/h (1 Bft) W 270 6,3 C 20,7 C 6,4 km/h (2 Bft)
18.05.2012 18:55 17,4 C 73 % 0,0 l/m 3,2 km/h (1 Bft) W-SW 247 6,6 C 20,7 C 3,4 km/h (1 Bft)
18.05.2012 19:00 17,0 C 73 % 0,0 l/m 3,1 km/h (1 Bft) W-SW 247 6,2 C 20,5 C 4,5 km/h (1 Bft)
18.05.2012 19:05 16,7 C 73 % 0,0 l/m 2,4 km/h (1 Bft) W 270 6,2 C 19,6 C 2,1 km/h (1 Bft)
18.05.2012 19:10 16,2 C 73 % 0,0 l/m 2,3 km/h (1 Bft) W 270 6,3 C 18,5 C 3,9 km/h (1 Bft)
18.05.2012 19:15 16,2 C 73 % 0,0 l/m 1,9 km/h (1 Bft) N-NO 22 6,3 C 17,9 C 1,6 km/h (1 Bft)
18.05.2012 19:20 16,1 C 73 % 0,0 l/m 1,3 km/h (1 Bft) O-SO 112 6,5 C 17,5 C 3,2 km/h (1 Bft)
18.05.2012 19:25 16,1 C 73 % 0,0 l/m 1,1 km/h (1 Bft) W 270 6,8 C 17,2 C 0,0 km/h (0 Bft)
18.05.2012 19:30 16,1 C 73 % 0,0 l/m 1,0 km/h (0 Bft) W-NW 292 6,8 C 17,1 C 0,0 km/h (0 Bft)
18.05.2012 19:35 16,1 C 73 % 0,0 l/m 0,3 km/h (0 Bft) N-NW 337 6,8 C 16,9 C 0,0 km/h (0 Bft)
18.05.2012 19:40 15,6 C 73 % 0,0 l/m 0,2 km/h (0 Bft) N 360 6,9 C 16,6 C 1,6 km/h (1 Bft)
18.05.2012 19:45 15,1 C 73 % 0,0 l/m 0,2 km/h (0 Bft) O-SO 112 6,6 C 16,2 C 0,0 km/h (0 Bft)
18.05.2012 19:50 14,9 C 73 % 0,0 l/m 1,4 km/h (1 Bft) W-NW 292 6,7 C 15,9 C 3,5 km/h (1 Bft)
18.05.2012 19:55 14,9 C 73 % 0,0 l/m 1,6 km/h (1 Bft) N-NW 337 6,7 C 15,6 C 2,4 km/h (1 Bft)
18.05.2012 20:00 14,9 C 73 % 0,0 l/m 0,6 km/h (0 Bft) N 360 6,7 C 15,4 C 0,0 km/h (0 Bft)
18.05.2012 20:05 14,7 C 73 % 0,0 l/m 0,3 km/h (0 Bft) N-NO 22 6,5 C 15,2 C 0,0 km/h (0 Bft)
18.05.2012 20:10 14,6 C 73 % 0,0 l/m 0,2 km/h (0 Bft) N-NO 22 6,7 C 15,0 C 1,6 km/h (1 Bft)
18.05.2012 20:15 14,4 C 73 % 0,0 l/m 0,0 km/h (0 Bft) N-NO 22 6,5 C 14,9 C 0,0 km/h (0 Bft)
18.05.2012 20:20 14,3 C 73 % 0,0 l/m 0,0 km/h (0 Bft) O 90 6,4 C 14,6 C 0,0 km/h (0 Bft)
18.05.2012 20:25 14,2 C 73 % 0,0 l/m 0,0 km/h (0 Bft) N-NO 22 6,3 C 14,5 C 0,0 km/h (0 Bft)
18.05.2012 20:30 14,1 C 73 % 0,0 l/m 0,0 km/h (0 Bft) N 360 6,5 C 14,3 C 0,0 km/h (0 Bft)
18.05.2012 20:35 14,0 C 73 % 0,0 l/m 0,0 km/h (0 Bft) NO 45 6,6 C 14,2 C 0,0 km/h (0 Bft)
18.05.2012 20:40 13,9 C 73 % 0,0 l/m 0,2 km/h (0 Bft) NO 45 6,5 C 14,0 C 0,0 km/h (0 Bft)
18.05.2012 20:45 13,7 C 73 % 0,0 l/m 0,3 km/h (0 Bft) N 360 6,6 C 14,0 C 1,9 km/h (1 Bft)
18.05.2012 20:50 13,5 C 73 % 0,0 l/m 0,5 km/h (0 Bft) N-NO 22 6,6 C 13,8 C 0,0 km/h (0 Bft)
18.05.2012 20:55 13,5 C 73 % 0,0 l/m 1,0 km/h (0 Bft) NO 45 6,6 C 13,7 C 2,9 km/h (1 Bft)
18.05.2012 21:00 13,1 C 73 % 0,0 l/m 1,0 km/h (0 Bft) N-NO 22 6,7 C 13,5 C 0,0 km/h (0 Bft)
18.05.2012 21:05 13,0 C 73 % 0,0 l/m 1,0 km/h (0 Bft) N 360 6,6 C 13,4 C 2,3 km/h (1 Bft)
18.05.2012 21:10 12,9 C 73 % 0,0 l/m 0,3 km/h (0 Bft) O 90 6,7 C 13,2 C 0,0 km/h (0 Bft)
18.05.2012 21:15 12,9 C 73 % 0,0 l/m 0,2 km/h (0 Bft) N 360 6,7 C 13,0 C 0,0 km/h (0 Bft)
18.05.2012 21:20 12,9 C 73 % 0,0 l/m 0,3 km/h (0 Bft) N-NO 22 6,9 C 12,9 C 0,0 km/h (0 Bft)
18.05.2012 21:25 12,8 C 73 % 0,0 l/m 0,5 km/h (0 Bft) NO 45 6,8 C 12,8 C 1,6 km/h (1 Bft)
18.05.2012 21:30 12,7 C 73 % 0,0 l/m 0,5 km/h (0 Bft) N 360 6,7 C 12,7 C 0,0 km/h (0 Bft)
18.05.2012 21:35 12,2 C 73 % 0,0 l/m 0,3 km/h (0 Bft) N 360 6,5 C 12,4 C 0,0 km/h (0 Bft)
18.05.2012 21:40 12,2 C 73 % 0,0 l/m 0,0 km/h (0 Bft) N-NO 22 6,5 C 12,1 C 0,0 km/h (0 Bft)
18.05.2012 21:45 12,1 C 73 % 0,0 l/m 0,0 km/h (0 Bft) N 360 6,4 C 12,0 C 0,0 km/h (0 Bft)
18.05.2012 21:50 11,9 C 73 % 0,0 l/m 0,2 km/h (0 Bft) NO 45 6,4 C 11,8 C 3,1 km/h (1 Bft)
18.05.2012 21:55 11,7 C 73 % 0,0 l/m 0,3 km/h (0 Bft) NO 45 6,2 C 11,6 C 2,6 km/h (1 Bft)
18.05.2012 22:00 11,5 C 73 % 0,0 l/m 0,6 km/h (0 Bft) NO 45 6,2 C 11,3 C 1,6 km/h (1 Bft)
18.05.2012 22:05 10,9 C 73 % 0,0 l/m 0,3 km/h (0 Bft) S 180 5,9 C 11,1 C 0,0 km/h (0 Bft)
18.05.2012 22:10 10,7 C 73 % 0,0 l/m 0,2 km/h (0 Bft) N 360 6,1 C 10,6 C 0,0 km/h (0 Bft)
18.05.2012 22:15 10,5 C 73 % 0,0 l/m 0,2 km/h (0 Bft) N-NO 22 5,9 C 10,4 C 0,0 km/h (0 Bft)
18.05.2012 22:20 10,6 C 74 % 0,0 l/m 0,2 km/h (0 Bft) NO 45 6,2 C 10,2 C 0,0 km/h (0 Bft)
18.05.2012 22:25 10,7 C 74 % 0,0 l/m 0,0 km/h (0 Bft) N-NO 22 6,3 C 10,2 C 0,0 km/h (0 Bft)
18.05.2012 22:30 10,6 C 75 % 0,0 l/m 0,0 km/h (0 Bft) S 180 6,4 C 10,4 C 0,0 km/h (0 Bft)
18.05.2012 22:35 10,4 C 75 % 0,0 l/m 0,0 km/h (0 Bft) N-NO 22 6,2 C 10,4 C 0,0 km/h (0 Bft)
18.05.2012 22:40 10,6 C 76 % 0,0 l/m 0,2 km/h (0 Bft) NO 45 6,5 C 10,3 C 0,0 km/h (0 Bft)
18.05.2012 22:45 10,7 C 75 % 0,0 l/m 0,2 km/h (0 Bft) NO 45 6,5 C 10,4 C 0,0 km/h (0 Bft)
18.05.2012 22:50 10,6 C 75 % 0,0 l/m 0,0 km/h (0 Bft) N 360 6,4 C 10,5 C 0,0 km/h (0 Bft)
18.05.2012 22:55 10,4 C 76 % 0,0 l/m 0,0 km/h (0 Bft) S 180 6,4 C 10,4 C 0,0 km/h (0 Bft)
18.05.2012 23:00 10,2 C 76 % 0,0 l/m 0,0 km/h (0 Bft) S 180 6,2 C 10,2 C 0,0 km/h (0 Bft)
18.05.2012 23:05 9,9 C 76 % 0,0 l/m 0,0 km/h (0 Bft) O 90 5,9 C 10,1 C 0,0 km/h (0 Bft)
18.05.2012 23:10 10,0 C 78 % 0,0 l/m 0,0 km/h (0 Bft) O 90 6,3 C 9,9 C 0,0 km/h (0 Bft)
18.05.2012 23:15 10,3 C 78 % 0,0 l/m 0,0 km/h (0 Bft) N-NO 22 6,6 C 9,9 C 0,0 km/h (0 Bft)
18.05.2012 23:20 10,3 C 78 % 0,0 l/m 0,2 km/h (0 Bft) N-NO 22 6,6 C 10,0 C 0,0 km/h (0 Bft)
18.05.2012 23:25 10,0 C 77 % 0,0 l/m 0,2 km/h (0 Bft) SO 135 6,2 C 10,0 C 0,0 km/h (0 Bft)
18.05.2012 23:30 9,6 C 78 % 0,0 l/m 0,0 km/h (0 Bft) N 360 6,0 C 9,7 C 0,0 km/h (0 Bft)
18.05.2012 23:35 9,5 C 78 % 0,0 l/m 0,0 km/h (0 Bft) N 360 5,9 C 9,5 C 0,0 km/h (0 Bft)
18.05.2012 23:40 9,3 C 78 % 0,0 l/m 0,0 km/h (0 Bft) S 180 5,7 C 9,3 C 0,0 km/h (0 Bft)
18.05.2012 23:45 9,3 C 79 % 0,0 l/m 0,0 km/h (0 Bft) NO 45 5,8 C 9,3 C 0,0 km/h (0 Bft)
18.05.2012 23:50 9,2 C 79 % 0,0 l/m 0,0 km/h (0 Bft) NO 45 5,8 C 9,2 C 0,0 km/h (0 Bft)
18.05.2012 23:55 9,1 C 79 % 0,0 l/m 0,0 km/h (0 Bft) NO 45 5,7 C 9,1 C 0,0 km/h (0 Bft)
_ Min-Zeit 04:10 22:15 - 23:55 - - 03:00 04:10 23:55
Minimum _ -1,9 C 73 % - 0,0 km/h (0 Bft) - - -3,5 C -2,9 C 0,0 km/h (0 Bft)
_ Max-Zeit 14:40 06:15 23:55 14:30 - - 16:00 14:45 14:45
Maximum _ 20,4 C 92 % 0,0 l/m 4,8 km/h
W-SW (1 Bft)
- - 7,4 C 22,4 C 10,9 km/h
W-SW (2 Bft)
Durchschnitt _ 10,5 C 78 % #0,0 l/m 1,4 km/h (1 Bft) W-SW - 2,9 C 11,1 C 1,9 km/h (1 Bft)